Time;durP1;ratioP1;P1;durP2;ratioP2;P2;SDS_P1;SDS_P2;PMS_P1;PMS_P2;Temp;Humidity;BMP_temperature;BMP_pressure;BME280_temperature;BME280_humidity;BME280_pressure;Samples;Min_cycle;Max_cycle;Signal;HPM_P1;HPM_P2
2021/12/07 00:00:07;;;;;;;0.90;0.90;;;;;;;-1.66;100.00;92290.19;2098431;28;20025;-93
2021/12/07 00:01:12;;;;;;;1.00;0.90;;;;;;;-1.77;100.00;92287.44;2106603;28;20504;-89
2021/12/07 00:02:13;;;;;;;0.95;0.88;;;;;;;-1.86;100.00;92286.97;2104254;28;20044;-89
2021/12/07 00:03:14;;;;;;;0.98;0.98;;;;;;;-1.90;100.00;92283.56;2110117;28;20106;-90
2021/12/07 00:04:15;;;;;;;0.70;0.70;;;;;;;-1.74;100.00;92286.75;2096476;28;20115;-89
2021/12/07 00:05:17;;;;;;;0.68;0.68;;;;;;;-1.40;100.00;92278.84;2098272;28;20563;-90
2021/12/07 00:06:18;;;;;;;0.98;0.90;;;;;;;-1.64;100.00;92280.09;2098146;28;20032;-88
2021/12/07 00:07:19;;;;;;;1.08;0.80;;;;;;;-1.68;100.00;92282.66;2098015;28;20066;-87
2021/12/07 00:08:25;;;;;;;0.88;0.88;;;;;;;-1.76;100.00;92286.31;2104584;28;20093;-87
2021/12/07 00:09:26;;;;;;;0.82;0.82;;;;;;;-1.65;100.00;92287.22;2104906;28;20041;-88
2021/12/07 00:10:27;;;;;;;0.75;0.75;;;;;;;-1.67;100.00;92289.41;2098207;28;20146;-90
2021/12/07 00:11:29;;;;;;;0.80;0.80;;;;;;;-1.55;100.00;92280.56;2093513;28;20462;-88
2021/12/07 00:12:35;;;;;;;0.80;0.80;;;;;;;-1.61;100.00;92282.00;2093106;28;20504;-86
2021/12/07 00:13:38;;;;;;;0.70;0.70;;;;;;;-1.56;100.00;92289.53;2094165;28;20033;-89
2021/12/07 00:14:41;;;;;;;1.08;0.75;;;;;;;-1.68;100.00;92285.28;2095604;28;20500;-88
2021/12/07 00:15:42;;;;;;;0.70;0.70;;;;;;;-1.56;100.00;92282.44;2095838;28;20059;-87
2021/12/07 00:16:44;;;;;;;1.25;0.85;;;;;;;-1.62;100.00;92288.38;2098481;28;20031;-89
2021/12/07 00:17:48;;;;;;;0.70;0.70;;;;;;;-1.39;100.00;92290.81;2102128;28;20028;-87
2021/12/07 00:18:53;;;;;;;0.60;0.60;;;;;;;-1.38;100.00;92297.56;2105386;28;20086;-89
2021/12/07 00:19:54;;;;;;;0.70;0.60;;;;;;;-1.33;100.00;92300.59;2095889;28;20046;-88
2021/12/07 00:20:55;;;;;;;0.98;0.60;;;;;;;-1.15;100.00;92294.78;2100151;28;20112;-87
2021/12/07 00:21:56;;;;;;;0.70;0.70;;;;;;;-1.36;100.00;92303.19;2098944;28;20469;-87
2021/12/07 00:23:01;;;;;;;0.70;0.70;;;;;;;-1.34;100.00;92296.50;2103800;28;20024;-90
2021/12/07 00:24:03;;;;;;;0.57;0.57;;;;;;;-1.35;100.00;92294.25;2104119;28;20445;-88
2021/12/07 00:25:05;;;;;;;0.70;0.70;;;;;;;-1.43;100.00;92295.28;2096600;28;20080;-89
2021/12/07 00:26:10;;;;;;;0.68;0.68;;;;;;;-1.26;100.00;92289.44;2093435;28;20031;-88
2021/12/07 00:27:11;;;;;;;0.47;0.47;;;;;;;-1.20;100.00;92301.09;2098224;28;20058;-86
2021/12/07 00:28:12;;;;;;;0.40;0.40;;;;;;;-1.34;100.00;92300.97;2101313;28;20445;-88
2021/12/07 00:29:14;;;;;;;0.50;0.50;;;;;;;-1.47;100.00;92307.59;2090560;28;20056;-86
2021/12/07 00:30:16;;;;;;;0.40;0.40;;;;;;;-1.52;100.00;92301.56;2098219;28;20111;-88
2021/12/07 00:31:28;;;;;;;0.30;0.30;;;;;;;-1.50;100.00;92310.91;2093886;28;20504;-90
2021/12/07 00:32:42;;;;;;;0.50;0.50;;;;;;;-1.53;100.00;92309.78;2100639;28;20166;-89
2021/12/07 00:36:18;;;;;;;0.40;0.40;;;;;;;-1.37;100.00;92306.94;2105309;28;20036;-87
2021/12/07 00:37:19;;;;;;;0.40;0.40;;;;;;;-1.25;100.00;92301.44;2095977;28;20520;-89
2021/12/07 00:38:23;;;;;;;0.43;0.40;;;;;;;-1.34;100.00;92296.50;2098110;28;20031;-89
2021/12/07 00:39:26;;;;;;;0.30;0.30;;;;;;;-1.45;100.00;92302.72;2098137;28;20470;-91
2021/12/07 00:40:27;;;;;;;0.40;0.40;;;;;;;-1.44;100.00;92305.00;2106303;28;20077;-87
2021/12/07 00:41:32;;;;;;;0.47;0.30;;;;;;;-1.54;100.00;92292.53;2097653;28;20023;-88
2021/12/07 00:42:33;;;;;;;0.30;0.30;;;;;;;-1.26;100.00;92294.69;2093860;28;20138;-86
2021/12/07 00:43:34;;;;;;;0.43;0.30;;;;;;;-1.36;100.00;92303.19;2104362;28;20024;-87
2021/12/07 00:44:35;;;;;;;0.40;0.40;;;;;;;-1.25;100.00;92300.69;2102015;28;20021;-90
2021/12/07 00:45:36;;;;;;;0.30;0.30;;;;;;;-1.36;100.00;92303.19;2106347;28;20469;-88
2021/12/07 00:46:37;;;;;;;0.22;0.22;;;;;;;-1.43;100.00;92303.13;2099196;28;20036;-88
2021/12/07 00:47:38;;;;;;;0.25;0.25;;;;;;;-1.43;100.00;92303.13;2099436;28;20029;-89
2021/12/07 00:48:39;;;;;;;1.45;0.40;;;;;;;-1.51;100.00;92297.06;2099582;28;20079;-88
2021/12/07 00:49:41;;;;;;;0.30;0.30;;;;;;;-1.39;100.00;92298.69;2092805;28;20063;-88
2021/12/07 00:50:46;;;;;;;0.20;0.20;;;;;;;-1.27;100.00;92293.94;2095941;28;20024;-87
2021/12/07 00:51:47;;;;;;;0.32;0.25;;;;;;;-1.30;100.00;92301.75;2102596;28;20020;-88
2021/12/07 00:52:56;;;;;;;0.20;0.20;;;;;;;-1.39;100.00;92303.94;2100591;28;20020;-85
2021/12/07 00:53:57;;;;;;;0.30;0.30;;;;;;;-1.36;100.00;92296.09;2096046;28;20067;-89
2021/12/07 00:55:00;;;;;;;0.32;0.32;;;;;;;-1.29;100.00;92304.03;2092833;28;20036;-88
2021/12/07 00:56:02;;;;;;;0.28;0.28;;;;;;;-1.11;100.00;92290.31;2092440;28;20502;-87
2021/12/07 00:57:04;;;;;;;0.40;0.30;;;;;;;-1.13;100.00;92295.94;2087825;28;20575;-88
2021/12/07 00:58:16;;;;;;;0.73;0.38;;;;;;;-1.03;100.00;92308.38;2088936;28;20067;-88
2021/12/07 00:59:17;;;;;;;0.45;0.30;;;;;;;-1.10;100.00;92300.44;2095596;28;20021;-87
2021/12/07 01:00:19;;;;;;;0.55;0.40;;;;;;;-0.99;100.00;92312.88;2089600;28;20504;-88
2021/12/07 01:01:21;;;;;;;0.47;0.25;;;;;;;-1.06;100.00;92309.06;2096817;28;20107;-88
2021/12/07 01:02:26;;;;;;;0.40;0.30;;;;;;;-1.05;100.00;92310.59;2097611;28;20494;-88
2021/12/07 01:03:28;;;;;;;0.30;0.30;;;;;;;-1.01;100.00;92318.47;2106673;28;20030;-89
2021/12/07 01:04:29;;;;;;;0.22;0.22;;;;;;;-0.83;100.00;92324.66;2097773;28;20098;-87
2021/12/07 01:05:34;;;;;;;0.30;0.30;;;;;;;-1.03;100.00;92323.34;2095096;28;20028;-88
2021/12/07 01:08:16;;;;;;;0.30;0.30;;;;;;;-0.98;100.00;92325.63;2103135;28;20036;-88
2021/12/07 01:24:40;;;;;;;0.32;0.32;;;;;;;-0.92;100.00;92321.59;2105337;28;19907;-88
2021/12/07 01:24:47;;;;;;;0.30;0.30;;;;;;;-0.76;100.00;92344.91;2108094;28;20057;-87
2021/12/07 01:25:33;;;;;;;0.30;0.30;;;;;;;-0.64;100.00;92328.91;2099128;28;20086;-87
2021/12/07 01:26:34;;;;;;;0.40;0.40;;;;;;;-0.80;100.00;92329.16;2098283;28;20025;-88
2021/12/07 01:27:36;;;;;;;0.50;0.50;;;;;;;-0.91;100.00;92327.56;2095197;28;20112;-89
2021/12/07 01:28:43;;;;;;;0.40;0.40;;;;;;;-0.91;100.00;92322.34;2085500;28;20025;-86
2021/12/07 01:29:47;;;;;;;0.35;0.35;;;;;;;-1.03;100.00;92315.47;2084749;28;20462;-89
2021/12/07 01:30:56;;;;;;;0.30;0.30;;;;;;;-0.89;100.00;92322.72;2088326;28;20509;-87
2021/12/07 01:32:16;;;;;;;0.30;0.30;;;;;;;-0.96;100.00;92318.16;2090443;28;20043;-88
2021/12/07 01:33:33;;;;;;;0.30;0.30;;;;;;;-1.05;100.00;92313.22;2104399;28;20106;-86
2021/12/07 01:37:57;;;;;;;1.10;0.22;;;;;;;-1.10;100.00;92321.44;2106947;28;19995;-87
2021/12/07 01:40:58;;;;;;;0.40;0.40;;;;;;;-1.11;100.00;92322.53;2102343;28;20074;-87
2021/12/07 01:44:46;;;;;;;;;;;;;;;-1.15;100.00;92332.22;2106783;28;20032;-86
2021/12/07 01:47:14;;;;;;;0.30;0.30;;;;;;;-0.99;100.00;92336.50;2105445;28;20115;-87
2021/12/07 01:50:11;;;;;;;0.30;0.30;;;;;;;-0.76;100.00;92344.91;2116600;27;20042;-86
2021/12/07 01:52:36;;;;;;;0.30;0.30;;;;;;;-0.79;100.00;92345.63;2106079;28;20029;-86
2021/12/07 02:00:18;;;;;;;0.30;0.30;;;;;;;-1.00;100.00;92359.34;2106880;28;20047;-87
2021/12/07 02:01:19;;;;;;;0.52;0.30;;;;;;;-1.02;100.00;92367.56;2095925;28;20457;-88
2021/12/07 02:02:24;;;;;;;0.30;0.30;;;;;;;-0.96;100.00;92356.75;2103370;28;20035;-88
2021/12/07 02:03:26;;;;;;;0.30;0.30;;;;;;;-1.04;100.00;92367.19;2094043;28;20017;-87
2021/12/07 02:04:27;;;;;;;0.20;0.20;;;;;;;-0.73;100.00;92367.06;2097212;28;20477;-88
2021/12/07 02:05:29;;;;;;;0.30;0.30;;;;;;;-0.82;100.00;92370.75;2089332;28;20025;-87
2021/12/07 02:06:30;;;;;;;0.30;0.30;;;;;;;-0.83;100.00;92368.50;2097526;28;20027;-87
2021/12/07 02:09:15;;;;;;;;;;;;;;;-0.75;100.00;92370.03;2144216;27;20120;-86
2021/12/07 02:10:23;;;;;;;0.30;0.30;;;;;;;-0.78;100.00;92363.66;2118210;28;19918;-87
2021/12/07 02:11:28;;;;;;;0.22;0.22;;;;;;;-0.70;100.00;92361.84;2103089;28;20024;-86
2021/12/07 02:12:43;;;;;;;0.40;0.40;;;;;;;-0.84;100.00;92364.34;2106800;28;20032;-86
2021/12/07 02:14:53;;;;;;;0.30;0.30;;;;;;;-0.83;100.00;92368.50;2106605;28;20075;-86
2021/12/07 02:16:10;;;;;;;0.30;0.30;;;;;;;-0.95;100.00;92363.50;2113160;28;20032;-87
2021/12/07 02:17:16;;;;;;;0.32;0.32;;;;;;;-0.93;100.00;92366.50;2100718;28;20111;-87
2021/12/07 02:18:17;;;;;;;0.20;0.20;;;;;;;-0.97;100.00;92369.09;2097978;28;20016;-84
2021/12/07 02:19:19;;;;;;;0.30;0.30;;;;;;;-0.88;100.00;92377.44;2103416;28;20377;-86
2021/12/07 02:20:22;;;;;;;0.20;0.20;;;;;;;-0.85;100.00;92378.56;2117102;28;20392;-87
2021/12/07 02:21:26;;;;;;;0.30;0.30;;;;;;;-0.76;100.00;92386.91;2103273;28;20111;-86
2021/12/07 02:22:27;;;;;;;0.30;0.30;;;;;;;-0.75;100.00;92377.91;2097068;28;20111;-87
2021/12/07 02:23:27;;;;;;;0.60;0.40;;;;;;;-0.84;100.00;92367.72;2113164;28;20020;-86
2021/12/07 02:24:30;;;;;;;0.38;0.30;;;;;;;-0.89;100.00;92383.78;2096486;28;20037;-88
2021/12/07 02:25:32;;;;;;;0.30;0.30;;;;;;;-0.82;100.00;92378.63;2104988;28;20020;-86
2021/12/07 02:26:34;;;;;;;0.25;0.25;;;;;;;-0.90;100.00;92377.03;2104962;28;20476;-86
2021/12/07 02:27:36;;;;;;;0.30;0.30;;;;;;;-0.95;100.00;92372.13;2097191;28;20025;-89
2021/12/07 02:28:39;;;;;;;0.30;0.30;;;;;;;-0.94;100.00;92384.13;2100977;28;20021;-86
2021/12/07 02:29:40;;;;;;;0.30;0.30;;;;;;;-0.73;100.00;92382.81;2105428;28;20024;-86
2021/12/07 02:30:43;;;;;;;0.43;0.40;;;;;;;-0.85;100.00;92383.81;2113112;28;20016;-86
2021/12/07 02:31:45;;;;;;;0.30;0.30;;;;;;;-0.90;100.00;92392.03;2097015;28;20048;-87
2021/12/07 02:32:46;;;;;;;0.28;0.28;;;;;;;-0.81;100.00;92385.38;2098776;28;20021;-86
2021/12/07 02:33:47;;;;;;;0.40;0.40;;;;;;;-0.58;100.00;92387.03;2104725;28;20023;-86
2021/12/07 02:34:58;;;;;;;0.52;0.30;;;;;;;-0.38;100.00;92398.09;2104909;28;20098;-86
2021/12/07 02:36:00;;;;;;;0.30;0.30;;;;;;;-0.53;100.00;92390.09;2115912;27;20034;-87
2021/12/07 02:37:03;;;;;;;0.30;0.30;;;;;;;-0.47;100.00;92385.28;2121329;28;20019;-87
2021/12/07 02:38:04;;;;;;;0.77;0.40;;;;;;;-0.60;100.00;92397.16;2108864;28;20024;-87
2021/12/07 02:39:10;;;;;;;0.40;0.40;;;;;;;-0.56;100.00;92393.44;2120847;27;20522;-85
2021/12/07 02:40:11;;;;;;;0.40;0.40;;;;;;;-0.56;100.00;92397.94;2116182;28;20066;-86
2021/12/07 02:41:12;;;;;;;0.30;0.30;;;;;;;-0.52;100.00;92393.47;2105759;28;20017;-87
2021/12/07 02:42:26;;;;;;;0.40;0.40;;;;;;;-0.42;100.00;92384.19;2102358;28;20032;-85
2021/12/07 02:43:35;;;;;;;1.33;0.50;;;;;;;-0.39;100.00;92393.97;2110454;28;20067;-87
2021/12/07 02:44:41;;;;;;;0.43;0.40;;;;;;;-0.33;100.00;92398.50;2115504;27;20019;-88
2021/12/07 02:45:49;;;;;;;1.17;0.40;;;;;;;-0.54;100.00;92399.06;2121711;27;20024;-87
2021/12/07 02:46:53;;;;;;;0.40;0.40;;;;;;;-0.57;100.00;92393.78;2108559;28;20114;-88
2021/12/07 02:47:54;;;;;;;0.55;0.50;;;;;;;-0.71;100.00;92394.44;2109747;27;20052;-89
2021/12/07 02:48:56;;;;;;;0.73;0.40;;;;;;;-0.47;100.00;92400.28;2111617;28;20037;-87
2021/12/07 02:50:00;;;;;;;0.30;0.30;;;;;;;-0.62;100.00;92402.75;2105229;28;20409;-88
2021/12/07 02:51:02;;;;;;;0.30;0.30;;;;;;;-0.78;100.00;92400.38;2107274;28;20035;-90
2021/12/07 02:52:05;;;;;;;0.40;0.40;;;;;;;-0.66;100.00;92403.84;2104793;28;20425;-86
2021/12/07 02:53:06;;;;;;;0.45;0.40;;;;;;;-0.78;100.00;92397.00;2112922;28;20472;-88
2021/12/07 02:54:07;;;;;;;0.32;0.32;;;;;;;-0.80;100.00;92401.84;2096365;28;20031;-87
2021/12/07 02:55:09;;;;;;;0.40;0.40;;;;;;;-0.75;100.00;92401.53;2104606;28;20032;-86
2021/12/07 02:56:10;;;;;;;0.45;0.40;;;;;;;-0.64;100.00;92410.25;2107521;28;20081;-88
2021/12/07 02:57:30;;;;;;;1.08;0.50;;;;;;;-0.68;100.00;92403.47;2112156;28;20678;-87
2021/12/07 02:58:32;;;;;;;0.20;0.20;;;;;;;-0.44;100.00;92412.66;2110220;28;20367;-88
2021/12/07 02:59:33;;;;;;;0.50;0.50;;;;;;;-0.44;100.00;92412.66;2112432;28;20390;-87
2021/12/07 03:00:43;;;;;;;1.30;0.40;;;;;;;-0.40;100.00;92411.56;2105543;28;20024;-89
2021/12/07 03:01:50;;;;;;;0.30;0.30;;;;;;;-0.46;100.00;92413.03;2106912;28;20063;-85
2021/12/07 03:02:57;;;;;;;0.40;0.40;;;;;;;-0.54;100.00;92421.94;2108409;28;20024;-87
2021/12/07 03:04:05;;;;;;;0.43;0.40;;;;;;;-0.52;100.00;92419.72;2110552;28;20527;-87
2021/12/07 03:05:18;;;;;;;0.35;0.35;;;;;;;-0.45;100.00;92416.41;2103533;28;20042;-86
2021/12/07 03:06:33;;;;;;;0.30;0.30;;;;;;;-0.37;100.00;92423.22;2101058;28;20119;-87
2021/12/07 03:08:03;;;;;;;0.43;0.40;;;;;;;-0.39;100.00;92418.34;2099932;28;20078;-88
2021/12/07 03:26:22;;;;;;;1.23;0.50;;;;;;;-0.34;100.00;92443.50;2111064;28;20059;-87
2021/12/07 03:27:23;;;;;;;2.38;0.60;;;;;;;-0.43;100.00;92440.44;2099109;28;20489;-89
2021/12/07 03:28:24;;;;;;;0.47;0.43;;;;;;;-0.52;100.00;92433.59;2093530;28;20043;-87
2021/12/07 03:29:26;;;;;;;0.47;0.47;;;;;;;-0.36;100.00;92441.22;2098130;28;20077;-86
2021/12/07 03:30:30;;;;;;;0.43;0.40;;;;;;;-0.37;100.00;92441.59;2106067;28;20111;-87
2021/12/07 03:31:32;;;;;;;0.60;0.60;;;;;;;-0.49;100.00;92439.97;2102465;28;20024;-86
2021/12/07 03:32:37;;;;;;;0.60;0.60;;;;;;;-0.43;100.00;92450.94;2092954;28;20032;-86
2021/12/07 03:33:44;;;;;;;0.73;0.52;;;;;;;-0.51;100.00;92444.84;2087776;28;20049;-90
2021/12/07 03:34:45;;;;;;;0.40;0.40;;;;;;;-0.57;100.00;92446.28;2095107;28;20029;-87
2021/12/07 03:35:46;;;;;;;0.75;0.50;;;;;;;-0.32;100.00;92443.88;2098151;28;20048;-86
2021/12/07 03:36:47;;;;;;;0.50;0.50;;;;;;;-0.34;100.00;92446.88;2098273;28;20032;-86
2021/12/07 03:37:48;;;;;;;1.20;0.60;;;;;;;-0.53;100.00;92439.19;2098493;28;20477;-85
2021/12/07 03:38:52;;;;;;;1.65;0.52;;;;;;;-0.62;100.00;92444.75;2105520;28;20020;-89
2021/12/07 03:39:52;;;;;;;1.17;0.50;;;;;;;-0.65;100.00;92445.50;2099756;28;20393;-87
2021/12/07 03:40:54;;;;;;;0.85;0.60;;;;;;;-0.71;100.00;92446.91;2115443;28;20062;-85
2021/12/07 03:41:55;;;;;;;1.05;0.50;;;;;;;-0.73;100.00;92451.78;2115129;28;20570;-88
2021/12/07 03:42:56;;;;;;;0.65;0.47;;;;;;;-0.47;100.00;92458.75;2115190;28;20057;-86
2021/12/07 03:43:57;;;;;;;0.40;0.40;;;;;;;-0.49;100.00;92460.22;2107004;28;20027;-89
2021/12/07 03:45:05;;;;;;;0.40;0.40;;;;;;;-0.58;100.00;92456.03;2094602;28;20020;-89
2021/12/07 03:46:11;;;;;;;1.27;0.47;;;;;;;-0.65;100.00;92455.22;2084348;28;20033;-86
2021/12/07 03:47:19;;;;;;;0.82;0.68;;;;;;;-0.52;100.00;92451.97;2099964;28;20055;-87
2021/12/07 03:48:28;;;;;;;0.30;0.30;;;;;;;-0.42;100.00;92455.81;2112945;28;20031;-86
2021/12/07 03:49:36;;;;;;;0.63;0.55;;;;;;;-0.42;100.00;92449.81;2099364;28;20020;-87
2021/12/07 03:50:42;;;;;;;3.13;0.60;;;;;;;-0.46;100.00;92462.91;2093437;28;20049;-87
2021/12/07 03:51:50;;;;;;;0.75;0.65;;;;;;;-0.39;100.00;92460.34;2094785;28;20554;-87
2021/12/07 03:52:54;;;;;;;1.42;0.47;;;;;;;-0.52;100.00;92454.59;2093814;28;20073;-88
2021/12/07 03:53:58;;;;;;;0.50;0.50;;;;;;;-0.26;100.00;92453.69;2099112;28;20057;-86
2021/12/07 03:55:07;;;;;;;2.17;0.60;;;;;;;-0.45;100.00;92453.16;2099002;28;20123;-88
2021/12/07 03:56:09;;;;;;;0.60;0.55;;;;;;;-0.48;100.00;92448.59;2099617;28;20082;-90
2021/12/07 03:57:12;;;;;;;0.60;0.60;;;;;;;-0.45;100.00;92451.28;2092745;28;20497;-87
2021/12/07 03:58:14;;;;;;;1.05;0.45;;;;;;;-0.44;100.00;92452.03;2102735;28;20130;-87
2021/12/07 03:59:15;;;;;;;1.65;0.75;;;;;;;-0.38;100.00;92456.59;2097399;28;20120;-87
2021/12/07 04:00:23;;;;;;;1.58;0.65;;;;;;;-0.43;100.00;92448.31;2090202;28;20025;-88
2021/12/07 04:01:25;;;;;;;1.58;0.70;;;;;;;-0.52;100.00;92457.22;2098792;28;20020;-87
2021/12/07 04:02:36;;;;;;;0.88;0.40;;;;;;;-0.45;100.00;92458.41;2090403;28;20017;-87
2021/12/07 04:03:38;;;;;;;1.42;0.60;;;;;;;-0.37;100.00;92459.97;2100664;28;20032;-88
2021/12/07 04:04:42;;;;;;;1.73;0.70;;;;;;;-0.39;100.00;92470.09;2098406;28;20104;-88
2021/12/07 04:05:49;;;;;;;1.90;0.90;;;;;;;-0.44;100.00;92459.91;2099181;28;20437;-88
2021/12/07 04:06:53;;;;;;;1.00;0.63;;;;;;;-0.43;100.00;92456.94;2099187;28;20074;-88
2021/12/07 04:07:58;;;;;;;0.50;0.50;;;;;;;-0.38;100.00;92461.09;2090920;28;20020;-86
2021/12/07 04:09:00;;;;;;;1.15;0.80;;;;;;;-0.35;100.00;92470.84;2099257;28;20486;-87
2021/12/07 04:10:11;;;;;;;2.20;0.77;;;;;;;-0.17;100.00;92461.25;2106603;28;20019;-88
2021/12/07 04:11:15;;;;;;;1.58;0.50;;;;;;;-0.32;100.00;92470.88;2099112;28;20021;-87
2021/12/07 04:12:15;;;;;;;0.55;0.55;;;;;;;-0.46;100.00;92464.78;2104826;28;20024;-87
2021/12/07 04:13:17;;;;;;;1.20;0.77;;;;;;;-0.62;100.00;92465.75;2100187;28;20021;-89
2021/12/07 04:14:19;;;;;;;1.02;0.90;;;;;;;-0.63;100.00;92461.63;2115182;28;20376;-86
2021/12/07 04:15:25;;;;;;;0.93;0.70;;;;;;;-0.53;100.00;92463.59;2106757;28;20124;-87
2021/12/07 04:16:31;;;;;;;1.52;0.68;;;;;;;-0.71;100.00;92467.91;2099029;28;20423;-88
2021/12/07 04:17:38;;;;;;;2.08;0.80;;;;;;;-0.56;100.00;92468.81;2098914;28;20029;-87
2021/12/07 04:18:45;;;;;;;2.10;0.90;;;;;;;-0.52;100.00;92483.47;2107223;28;20381;-88
2021/12/07 04:19:48;;;;;;;0.60;0.60;;;;;;;-0.43;100.00;92475.31;2105009;28;20024;-88
2021/12/07 04:20:55;;;;;;;4.38;1.38;;;;;;;-0.31;100.00;92484.75;2104298;28;20412;-88
2021/12/07 04:21:58;;;;;;;3.95;0.90;;;;;;;-0.35;100.00;92486.59;2102651;28;20016;-87
2021/12/07 04:23:00;;;;;;;0.90;0.65;;;;;;;-0.49;100.00;92476.72;2098819;28;20438;-88
2021/12/07 04:24:01;;;;;;;1.00;0.90;;;;;;;-0.52;100.00;92480.09;2098576;28;20024;-87
2021/12/07 04:25:04;;;;;;;1.63;0.90;;;;;;;-0.55;100.00;92463.19;2102309;28;20023;-87
2021/12/07 04:26:09;;;;;;;3.28;0.90;;;;;;;-0.64;100.00;92467.97;2090805;28;20405;-89
2021/12/07 04:27:14;;;;;;;2.53;0.70;;;;;;;-0.45;100.00;92472.28;2093512;28;20474;-87
2021/12/07 04:28:15;;;;;;;1.55;0.80;;;;;;;-0.40;100.00;92460.69;2106360;28;20388;-88
2021/12/07 04:29:16;;;;;;;2.33;0.95;;;;;;;-0.44;100.00;92454.66;2106411;28;20012;-89
2021/12/07 04:30:24;;;;;;;3.15;1.00;;;;;;;-0.62;100.00;92451.88;2097871;28;20469;-86
2021/12/07 04:31:24;;;;;;;3.28;0.98;;;;;;;-0.73;100.00;92458.91;2091912;28;20067;-87
2021/12/07 04:32:25;;;;;;;0.80;0.63;;;;;;;-0.76;100.00;92463.00;2089140;28;20063;-86
2021/12/07 04:33:29;;;;;;;3.17;1.02;;;;;;;-0.81;100.00;92460.69;2085904;28;20114;-87
2021/12/07 04:34:30;;;;;;;4.22;0.98;;;;;;;-0.73;100.00;92466.78;2098082;28;20064;-87
2021/12/07 04:35:31;;;;;;;4.95;0.80;;;;;;;-0.63;100.00;92472.13;2102282;28;20020;-87
2021/12/07 04:36:32;;;;;;;1.20;0.80;;;;;;;-0.55;100.00;92462.44;2090680;28;20025;-86
2021/12/07 04:37:33;;;;;;;2.25;1.10;;;;;;;-0.54;100.00;92469.94;2097557;28;20024;-88
2021/12/07 04:38:35;;;;;;;4.72;0.85;;;;;;;-0.54;100.00;92472.56;2100926;28;20035;-87
2021/12/07 04:39:37;;;;;;;2.85;1.45;;;;;;;-0.46;100.00;92483.13;2097584;28;20020;-87
2021/12/07 04:40:45;;;;;;;5.07;0.98;;;;;;;-0.60;100.00;92471.41;2098588;28;20029;-85
2021/12/07 04:41:48;;;;;;;1.67;0.80;;;;;;;-0.64;100.00;92470.59;2105288;28;20023;-86
2021/12/07 04:42:50;;;;;;;4.00;1.10;;;;;;;-0.45;100.00;92474.16;2109151;28;20020;-87
2021/12/07 04:43:51;;;;;;;3.42;1.17;;;;;;;-0.55;100.00;92473.69;2103616;28;20029;-89
2021/12/07 04:44:58;;;;;;;2.67;1.27;;;;;;;-0.56;100.00;92466.94;2084474;28;20032;-87
2021/12/07 04:50:35;;;;;;;1.58;0.82;;;;;;;-0.41;100.00;92472.31;2106268;28;20077;-85
2021/12/07 04:58:18;;;;;;;1.80;0.98;;;;;;;-0.91;100.00;92490.19;2114805;28;20472;-86
2021/12/07 04:59:19;;;;;;;2.10;1.00;;;;;;;-0.80;100.00;92496.31;2097973;28;20024;-87
2021/12/07 05:00:27;;;;;;;5.80;0.95;;;;;;;-0.61;100.00;92493.50;2097960;28;20017;-85
2021/12/07 05:01:32;;;;;;;0.85;0.80;;;;;;;-0.71;100.00;92494.16;2099272;28;20035;-85
2021/12/07 05:02:35;;;;;;;2.40;0.90;;;;;;;-0.72;100.00;92495.25;2097600;28;20056;-88
2021/12/07 05:03:38;;;;;;;1.15;0.98;;;;;;;-0.66;100.00;92498.31;2088219;28;20485;-87
2021/12/07 05:04:39;;;;;;;3.33;0.98;;;;;;;-0.69;100.00;92502.44;2082046;28;20142;-85
2021/12/07 05:05:46;;;;;;;1.13;1.00;;;;;;;-0.57;100.00;92493.53;2090878;28;20083;-85
2021/12/07 05:06:50;;;;;;;1.52;1.10;;;;;;;-0.66;100.00;92506.97;2092664;28;20117;-85
2021/12/07 05:07:54;;;;;;;2.22;0.85;;;;;;;-0.45;100.00;92501.16;2098212;28;20448;-87
2021/12/07 05:09:01;;;;;;;2.05;1.10;;;;;;;-0.58;100.00;92505.16;2097319;28;20028;-85
2021/12/07 05:10:16;;;;;;;1.88;1.20;;;;;;;-0.69;100.00;92499.81;2091289;28;20051;-88
2021/12/07 05:12:40;;;;;;;1.85;0.90;;;;;;;-0.60;100.00;92499.50;2099154;28;20039;-87
2021/12/07 05:15:28;;;;;;;1.95;0.95;;;;;;;-0.73;100.00;92501.63;2101862;28;20077;-87
2021/12/07 05:16:46;;;;;;;1.52;1.00;;;;;;;-0.88;100.00;92505.22;2108171;28;20066;-86
2021/12/07 05:18:33;;;;;;;4.15;1.60;;;;;;;-0.80;100.00;92507.53;2109085;28;20028;-86
2021/12/07 05:23:57;;;;;;;4.78;0.93;;;;;;;-0.87;100.00;92504.13;2109304;28;20664;-87
2021/12/07 05:34:36;;;;;;;2.45;1.10;;;;;;;-0.82;100.00;92507.16;2106887;27;20027;-86
2021/12/07 05:37:57;;;;;;;4.10;1.30;;;;;;;-0.92;100.00;92507.81;2108739;28;20028;-88
2021/12/07 05:38:58;;;;;;;1.50;1.00;;;;;;;-0.84;100.00;92517.25;2106876;28;20020;-87
2021/12/07 05:40:00;;;;;;;9.15;3.92;;;;;;;-1.07;100.00;92506.88;2102318;28;20055;-86
2021/12/07 05:41:02;;;;;;;5.60;3.35;;;;;;;-1.07;100.00;92506.13;2093717;28;20404;-88
2021/12/07 05:42:03;;;;;;;5.40;1.63;;;;;;;-1.08;100.00;92507.25;2085385;28;20493;-89
2021/12/07 05:43:05;;;;;;;2.67;1.02;;;;;;;-0.87;100.00;92507.50;2093217;28;20099;-88
2021/12/07 05:44:06;;;;;;;2.72;1.60;;;;;;;-0.78;100.00;92509.84;2102548;28;20031;-87
2021/12/07 05:45:11;;;;;;;9.80;1.48;;;;;;;-0.70;100.00;92521.13;2106066;28;20023;-88
2021/12/07 05:46:12;;;;;;;3.25;1.17;;;;;;;-0.76;100.00;92520.72;2103484;28;20024;-88
2021/12/07 05:47:13;;;;;;;2.42;1.23;;;;;;;-0.95;100.00;92521.63;2089015;28;20025;-88
2021/12/07 05:48:14;;;;;;;7.50;1.13;;;;;;;-0.79;100.00;92531.91;2086908;28;20032;-87
2021/12/07 05:49:15;;;;;;;3.65;1.13;;;;;;;-0.76;100.00;92531.22;2089498;28;20025;-86
2021/12/07 05:50:21;;;;;;;5.50;1.27;;;;;;;-0.75;100.00;92522.22;2103839;28;20020;-86
2021/12/07 05:51:21;;;;;;;2.85;1.13;;;;;;;-0.74;100.00;92528.25;2099639;28;20020;-87
2021/12/07 05:52:24;;;;;;;1.30;1.10;;;;;;;-0.81;100.00;92526.28;2098414;28;20039;-88
2021/12/07 05:53:29;;;;;;;4.25;1.00;;;;;;;-0.81;100.00;92527.03;2101212;28;20044;-86
2021/12/07 05:54:33;;;;;;;2.75;1.23;;;;;;;-0.89;100.00;92519.44;2114679;28;20047;-87
2021/12/07 05:55:37;;;;;;;3.88;1.40;;;;;;;-1.07;100.00;92530.47;2098152;28;20631;-87
2021/12/07 05:56:39;;;;;;;3.78;1.00;;;;;;;-0.87;100.00;92533.72;2093512;28;20223;-87
2021/12/07 05:57:40;;;;;;;1.77;1.10;;;;;;;-0.79;100.00;92531.91;2088682;28;20032;-87
2021/12/07 05:58:43;;;;;;;1.90;0.90;;;;;;;-0.74;100.00;92539.50;2092826;28;20067;-85
2021/12/07 05:59:44;;;;;;;3.72;1.38;;;;;;;-0.76;100.00;92533.84;2097160;28;20028;-87
2021/12/07 06:00:46;;;;;;;2.75;1.35;;;;;;;-0.81;100.00;92534.91;2095950;28;20028;-87
2021/12/07 06:01:47;;;;;;;8.98;1.33;;;;;;;-0.75;100.00;92543.19;2091965;28;20088;-87
2021/12/07 06:02:48;;;;;;;4.88;0.98;;;;;;;-0.61;100.00;92542.63;2092808;28;20037;-86
2021/12/07 06:03:58;;;;;;;4.50;1.23;;;;;;;-0.64;100.00;92538.09;2090770;28;20033;-86
2021/12/07 06:04:59;;;;;;;4.57;1.33;;;;;;;-0.60;100.00;92557.25;2113537;28;20034;-87
2021/12/07 06:06:03;;;;;;;3.15;1.20;;;;;;;-0.58;100.00;92549.75;2105921;28;20031;-86
2021/12/07 06:07:05;;;;;;;2.25;1.50;;;;;;;-0.59;100.00;92550.88;2100854;28;20020;-87
2021/12/07 06:08:11;;;;;;;5.97;1.38;;;;;;;-0.59;100.00;92554.25;2094131;28;20111;-86
2021/12/07 06:09:16;;;;;;;1.75;0.90;;;;;;;-0.61;100.00;92556.50;2090561;28;20045;-87
2021/12/07 06:10:22;;;;;;;6.68;1.27;;;;;;;-0.47;100.00;92557.75;2098292;28;20162;-86
2021/12/07 06:11:24;;;;;;;3.63;1.05;;;;;;;-0.70;100.00;92550.78;2098384;28;20417;-86
2021/12/07 06:12:27;;;;;;;2.55;1.10;;;;;;;-0.89;100.00;92535.94;2097384;28;20016;-87
2021/12/07 06:13:30;;;;;;;1.65;1.00;;;;;;;-0.71;100.00;92549.25;2097999;28;20024;-87
2021/12/07 06:14:41;;;;;;;3.45;1.38;;;;;;;-0.83;100.00;92549.50;2097816;28;20028;-87
2021/12/07 06:15:44;;;;;;;4.68;1.33;;;;;;;-0.78;100.00;92557.06;2092026;28;20029;-87
2021/12/07 06:16:49;;;;;;;1.98;1.00;;;;;;;-0.82;100.00;92557.00;2098418;28;20020;-87
2021/12/07 06:17:54;;;;;;;2.80;1.38;;;;;;;-1.02;100.00;92548.53;2103335;28;20110;-88
2021/12/07 06:18:56;;;;;;;1.80;1.45;;;;;;;-1.10;100.00;92551.41;2092943;28;20751;-87
2021/12/07 06:19:58;;;;;;;2.30;1.08;;;;;;;-1.09;100.00;92558.19;2094387;28;20055;-86
2021/12/07 06:21:01;;;;;;;2.45;1.15;;;;;;;-1.04;100.00;92557.88;2098380;28;20107;-86
2021/12/07 06:22:04;;;;;;;2.78;0.98;;;;;;;-0.88;100.00;92558.44;2093397;28;20707;-86
2021/12/07 06:23:04;;;;;;;2.42;1.20;;;;;;;-0.95;100.00;92558.34;2085855;28;20089;-85
2021/12/07 06:24:20;;;;;;;3.83;1.38;;;;;;;-1.01;100.00;92559.75;2097586;28;20070;-86
2021/12/07 06:25:21;;;;;;;1.67;1.15;;;;;;;-0.88;100.00;92541.94;2101482;28;20528;-87
2021/12/07 06:26:22;;;;;;;6.00;1.40;;;;;;;-0.83;100.00;92549.50;2097542;28;20107;-88